Terminal Aerodrome Forecast
Issued by NWS

Home | Current Version | Previous Version | Graphics & Text | Print | Product List | Glossary On
Versions: 1 2 3 4 5 6 7 8 9 10 11 12 13
000
FTUS45 KGGW 180500
TAFSDY
TAF
KSDY 180521Z 1806/1906 17004KT P6SM SCT120 BKN250
     FM181900 20011G17KT P6SM VCSH SCT110 BKN200
     FM182300 26007KT P6SM VCSH SCT120 BKN250
      AMD LTD TO CLD VIS AND WIND=

USA.gov is the U.S. government's official web portal to all federal, state and local government web resources and services.